createdAt,value
2024-02-06T00:00:05.962Z,2.69
2024-02-06T00:00:15.991Z,2.71
2024-02-06T00:00:25.959Z,2.70
2024-02-06T00:00:36.133Z,2.70
2024-02-06T00:00:46.039Z,2.69
2024-02-06T00:00:56.102Z,2.70
2024-02-06T00:01:06.088Z,2.71
2024-02-06T00:01:26.024Z,2.70
2024-02-06T00:01:36.157Z,2.70
2024-02-06T00:01:46.021Z,2.69
2024-02-06T00:01:56.029Z,2.70
2024-02-06T00:02:06.121Z,2.70
2024-02-06T00:02:16.287Z,2.71
2024-02-06T00:02:26.014Z,2.71
2024-02-06T00:02:35.981Z,2.71
2024-02-06T00:02:45.998Z,2.71
2024-02-06T00:02:55.981Z,2.73
2024-02-06T00:03:06.017Z,2.73
2024-02-06T00:03:15.994Z,2.72
2024-02-06T00:03:25.979Z,2.71
2024-02-06T00:03:35.992Z,2.71
2024-02-06T00:03:56.009Z,2.70
2024-02-06T00:04:06.010Z,2.69
2024-02-06T00:04:16.018Z,2.70
2024-02-06T00:04:26.003Z,2.68
2024-02-06T00:04:36.053Z,2.68
2024-02-06T00:04:46.133Z,2.70
2024-02-06T00:04:56.062Z,2.71
2024-02-06T00:05:16.010Z,2.73
2024-02-06T00:05:26.099Z,2.73
2024-02-06T00:05:36.017Z,2.72
2024-02-06T00:05:46.023Z,2.75
2024-02-06T00:05:56.049Z,2.74
2024-02-06T00:06:06.201Z,2.73
2024-02-06T00:06:16.053Z,2.71
2024-02-06T00:06:26.043Z,2.71
2024-02-06T00:06:36.065Z,2.71
2024-02-06T00:06:46.910Z,2.72
2024-02-06T00:07:14.565Z,2.69
2024-02-06T00:07:23.886Z,2.66
2024-02-06T00:07:32.327Z,2.66
2024-02-06T00:07:37.060Z,2.63
2024-02-06T00:07:46.078Z,2.64
2024-02-06T00:07:56.163Z,2.67
2024-02-06T00:08:06.220Z,2.66
2024-02-06T00:08:26.020Z,2.66
2024-02-06T00:08:36.236Z,2.66
2024-02-06T00:08:46.047Z,2.68
2024-02-06T00:08:56.003Z,2.69
2024-02-06T00:09:06.010Z,2.70
2024-02-06T00:09:16.005Z,2.70
2024-02-06T00:09:26.006Z,2.72
2024-02-06T00:09:35.994Z,2.70
2024-02-06T00:09:46.008Z,2.67
2024-02-06T00:09:56.166Z,2.68
2024-02-06T00:10:16.119Z,2.67
2024-02-06T00:10:26.843Z,2.68
2024-02-06T00:10:36.087Z,2.67
2024-02-06T00:10:46.086Z,2.64
2024-02-06T00:10:56.043Z,2.66
2024-02-06T00:11:06.049Z,2.66
2024-02-06T00:11:16.012Z,2.66
2024-02-06T00:11:26.006Z,2.66
2024-02-06T00:11:36.037Z,2.66
2024-02-06T00:11:46.014Z,2.66
2024-02-06T00:11:56.020Z,2.67
2024-02-06T00:12:06.022Z,2.66
2024-02-06T00:12:16.014Z,2.65
2024-02-06T00:12:26.012Z,2.63
2024-02-06T00:12:36.014Z,2.63
2024-02-06T00:12:46.020Z,2.63
2024-02-06T00:13:06.081Z,2.62
2024-02-06T00:13:16.053Z,2.62
2024-02-06T00:13:26.067Z,2.62
2024-02-06T00:13:36.035Z,2.61
2024-02-06T00:13:46.035Z,2.61
2024-02-06T00:13:56.040Z,2.61
2024-02-06T00:14:06.026Z,2.61
2024-02-06T00:14:16.020Z,2.62
2024-02-06T00:14:26.023Z,2.62
2024-02-06T00:14:36.045Z,2.61
2024-02-06T00:14:46.017Z,2.62
2024-02-06T00:14:56.035Z,2.62
2024-02-06T00:15:06.030Z,2.61
2024-02-06T00:15:16.033Z,2.61
2024-02-06T00:15:26.032Z,2.62
2024-02-06T00:15:36.030Z,2.62
2024-02-06T00:15:46.031Z,2.61
2024-02-06T00:15:56.077Z,2.62
2024-02-06T00:16:06.077Z,2.63
2024-02-06T00:16:16.079Z,2.61
2024-02-06T00:16:26.089Z,2.62
2024-02-06T00:16:36.152Z,2.60
2024-02-06T00:16:46.069Z,2.61
2024-02-06T00:17:06.047Z,2.60
2024-02-06T00:17:16.030Z,2.61
2024-02-06T00:17:26.035Z,2.62
2024-02-06T00:17:36.068Z,2.61
2024-02-06T00:17:46.112Z,2.61
2024-02-06T00:17:56.091Z,2.63
2024-02-06T00:18:06.222Z,2.62
2024-02-06T00:18:16.099Z,2.59
2024-02-06T00:18:26.037Z,2.61
2024-02-06T00:18:36.110Z,2.60
2024-02-06T00:18:46.034Z,2.57
2024-02-06T00:18:56.157Z,2.58
2024-02-06T00:19:06.079Z,2.58
2024-02-06T00:19:16.216Z,2.59
2024-02-06T00:19:26.104Z,2.59
2024-02-06T00:19:36.118Z,2.60
2024-02-06T00:19:46.149Z,2.60
2024-02-06T00:19:56.072Z,2.59
2024-02-06T00:20:06.157Z,2.60
2024-02-06T00:20:16.265Z,2.59
2024-02-06T00:20:26.106Z,2.59
2024-02-06T00:20:36.185Z,2.60
2024-02-06T00:20:46.089Z,2.60
2024-02-06T00:20:56.068Z,2.60
2024-02-06T00:21:06.900Z,2.58
2024-02-06T00:21:26.059Z,2.58
2024-02-06T00:21:36.064Z,2.56
2024-02-06T00:21:46.060Z,2.58
2024-02-06T00:21:56.085Z,2.59
2024-02-06T00:22:06.087Z,2.57
2024-02-06T00:22:16.108Z,2.59
2024-02-06T00:22:26.141Z,2.59
2024-02-06T00:22:36.185Z,2.56
2024-02-06T00:22:46.123Z,2.57
2024-02-06T00:22:56.068Z,2.55
2024-02-06T00:23:06.087Z,2.55
2024-02-06T00:23:16.063Z,2.56
2024-02-06T00:23:26.079Z,2.57
2024-02-06T00:23:36.152Z,2.57
2024-02-06T00:23:46.057Z,2.56
2024-02-06T00:23:56.060Z,2.55
2024-02-06T00:24:06.098Z,2.56
2024-02-06T00:24:16.072Z,2.54
2024-02-06T00:24:36.095Z,2.55
2024-02-06T00:24:46.071Z,2.56
2024-02-06T00:24:56.102Z,2.57
2024-02-06T00:25:06.093Z,2.54
2024-02-06T00:25:16.115Z,2.56
2024-02-06T00:25:26.081Z,2.54
2024-02-06T00:25:36.133Z,2.55
2024-02-06T00:25:46.119Z,2.57
2024-02-06T00:25:56.098Z,2.55
2024-02-06T00:26:06.082Z,2.57
2024-02-06T00:26:16.074Z,2.57
2024-02-06T00:26:26.089Z,2.55
2024-02-06T00:26:36.079Z,2.56
2024-02-06T00:26:46.087Z,2.55
2024-02-06T00:27:06.088Z,2.55
2024-02-06T00:27:16.110Z,2.57
2024-02-06T00:27:26.076Z,2.56
2024-02-06T00:27:36.097Z,2.56
2024-02-06T00:27:46.080Z,2.57
2024-02-06T00:27:56.099Z,2.59
2024-02-06T00:28:06.208Z,2.57
2024-02-06T00:28:26.099Z,2.58
2024-02-06T00:28:36.121Z,2.58
2024-02-06T00:28:46.210Z,2.58
2024-02-06T00:28:56.093Z,2.59
2024-02-06T00:29:06.088Z,2.58
2024-02-06T00:29:16.105Z,2.57
2024-02-06T00:29:26.087Z,2.58
2024-02-06T00:29:36.102Z,2.58
2024-02-06T00:29:46.092Z,2.59
2024-02-06T00:29:56.094Z,2.60
2024-02-06T00:30:06.116Z,2.60
2024-02-06T00:30:16.094Z,2.60
2024-02-06T00:30:26.093Z,2.59
2024-02-06T00:30:46.125Z,2.57
2024-02-06T00:30:56.161Z,2.59
2024-02-06T00:31:06.163Z,2.59
2024-02-06T00:31:16.194Z,2.59
2024-02-06T00:31:26.142Z,2.60
2024-02-06T00:31:36.216Z,2.59
2024-02-06T00:31:46.125Z,2.59
2024-02-06T00:32:06.129Z,2.56
2024-02-06T00:32:16.101Z,2.56
2024-02-06T00:32:26.166Z,2.57
2024-02-06T00:32:36.222Z,2.58
2024-02-06T00:32:46.171Z,2.56
2024-02-06T00:32:56.157Z,2.57
2024-02-06T00:33:06.307Z,2.57
2024-02-06T00:33:16.267Z,2.57
2024-02-06T00:33:26.161Z,2.55
2024-02-06T00:33:36.232Z,2.56
2024-02-06T00:33:46.202Z,2.54
2024-02-06T00:34:06.226Z,2.56
2024-02-06T00:34:16.235Z,2.54
2024-02-06T00:34:26.191Z,2.55
2024-02-06T00:34:36.221Z,2.55
2024-02-06T00:34:46.190Z,2.57
2024-02-06T00:34:56.196Z,2.55
2024-02-06T00:35:06.246Z,2.57
2024-02-06T00:35:16.281Z,2.56
2024-02-06T00:35:26.136Z,2.55
2024-02-06T00:35:46.111Z,2.54
2024-02-06T00:35:56.115Z,2.58
2024-02-06T00:36:06.120Z,2.58
2024-02-06T00:36:16.121Z,2.57
2024-02-06T00:36:26.123Z,2.55
2024-02-06T00:36:36.118Z,2.57
2024-02-06T00:36:46.126Z,2.55
2024-02-06T00:36:56.231Z,2.57
2024-02-06T00:37:06.255Z,2.56
2024-02-06T00:37:26.214Z,2.56
2024-02-06T00:37:36.262Z,2.55
2024-02-06T00:37:46.141Z,2.55
2024-02-06T00:37:56.129Z,2.54
2024-02-06T00:38:06.129Z,2.54
2024-02-06T00:38:16.127Z,2.55
2024-02-06T00:38:26.170Z,2.54
2024-02-06T00:38:36.145Z,2.55
2024-02-06T00:38:46.126Z,2.54
2024-02-06T00:38:56.134Z,2.53
2024-02-06T00:39:06.165Z,2.54
2024-02-06T00:39:16.131Z,2.54
2024-02-06T00:39:26.139Z,2.56
2024-02-06T00:39:36.147Z,2.56
2024-02-06T00:39:46.123Z,2.56
2024-02-06T00:39:56.186Z,2.56
2024-02-06T00:40:06.180Z,2.57
2024-02-06T00:40:16.175Z,2.57
2024-02-06T00:40:36.154Z,2.56
2024-02-06T00:40:46.192Z,2.54
2024-02-06T00:40:56.136Z,2.54
2024-02-06T00:41:06.149Z,2.56
2024-02-06T00:41:16.136Z,2.55
2024-02-06T00:41:26.157Z,2.54
2024-02-06T00:41:36.179Z,2.57
2024-02-06T00:41:56.160Z,2.57
2024-02-06T00:42:06.164Z,2.57
2024-02-06T00:42:16.143Z,2.57
2024-02-06T00:42:26.140Z,2.58
2024-02-06T00:42:36.894Z,2.56
2024-02-06T00:42:46.147Z,2.57
2024-02-06T00:42:56.194Z,2.56
2024-02-06T00:43:06.288Z,2.59
2024-02-06T00:43:16.196Z,2.56
2024-02-06T00:43:26.220Z,2.58
2024-02-06T00:43:46.204Z,2.58
2024-02-06T00:43:56.151Z,2.59
2024-02-06T00:44:06.164Z,2.60
2024-02-06T00:44:16.162Z,2.59
2024-02-06T00:44:26.157Z,2.59
2024-02-06T00:44:36.152Z,2.58
2024-02-06T00:44:56.155Z,2.55
2024-02-06T00:45:06.174Z,2.58
2024-02-06T00:45:16.160Z,2.56
2024-02-06T00:45:26.166Z,2.57
2024-02-06T00:45:36.161Z,2.57
2024-02-06T00:45:46.165Z,2.56
2024-02-06T00:45:56.172Z,2.56
2024-02-06T00:46:06.282Z,2.56
2024-02-06T00:46:16.198Z,2.57
2024-02-06T00:46:26.225Z,2.54
2024-02-06T00:46:36.252Z,2.56
2024-02-06T00:46:46.183Z,2.56
2024-02-06T00:46:56.173Z,2.55
2024-02-06T00:47:16.182Z,2.56
2024-02-06T00:47:26.158Z,2.56
2024-02-06T00:47:36.203Z,2.55
2024-02-06T00:47:46.254Z,2.54
2024-02-06T00:47:56.313Z,2.54
2024-02-06T00:48:06.387Z,2.53
2024-02-06T00:48:16.281Z,2.53
2024-02-06T00:48:26.313Z,2.52
2024-02-06T00:48:36.285Z,2.53
2024-02-06T00:48:56.350Z,2.52
2024-02-06T00:49:06.384Z,2.52
2024-02-06T00:49:16.475Z,2.51
2024-02-06T00:49:26.322Z,2.50
2024-02-06T00:49:36.380Z,2.51
2024-02-06T00:49:46.379Z,2.52
2024-02-06T00:49:56.301Z,2.51
2024-02-06T00:50:06.323Z,2.51
2024-02-06T00:50:16.301Z,2.52
2024-02-06T00:50:26.380Z,2.51
2024-02-06T00:50:36.314Z,2.54
2024-02-06T00:50:46.338Z,2.51
2024-02-06T00:50:56.326Z,2.53
2024-02-06T00:51:06.231Z,2.52
2024-02-06T00:51:16.182Z,2.50
2024-02-06T00:51:26.194Z,2.51
2024-02-06T00:51:36.210Z,2.53
2024-02-06T00:51:46.181Z,2.54
2024-02-06T00:51:56.306Z,2.53
2024-02-06T00:52:16.238Z,2.54
2024-02-06T00:52:26.253Z,2.54
2024-02-06T00:52:36.335Z,2.54
2024-02-06T00:52:46.190Z,2.52
2024-02-06T00:52:56.191Z,2.51
2024-02-06T00:53:06.186Z,2.52
2024-02-06T00:53:16.203Z,2.50
2024-02-06T00:53:26.205Z,2.52
2024-02-06T00:53:36.188Z,2.50
2024-02-06T00:53:56.196Z,2.52
2024-02-06T00:54:06.191Z,2.51
2024-02-06T00:54:16.207Z,2.51
2024-02-06T00:54:26.196Z,2.50
2024-02-06T00:54:36.207Z,2.51
2024-02-06T00:54:46.193Z,2.54
2024-02-06T00:54:56.237Z,2.54
2024-02-06T00:55:06.262Z,2.53
2024-02-06T00:55:16.262Z,2.54
2024-02-06T00:55:26.276Z,2.54
2024-02-06T00:55:36.263Z,2.54
2024-02-06T00:55:46.275Z,2.55
2024-02-06T00:56:06.279Z,2.55
2024-02-06T00:56:16.208Z,2.55
2024-02-06T00:56:26.205Z,2.55
2024-02-06T00:56:36.214Z,2.57
2024-02-06T00:56:46.222Z,2.57
2024-02-06T00:56:56.895Z,2.56
2024-02-06T00:57:16.207Z,2.55
2024-02-06T00:57:26.210Z,2.53
2024-02-06T00:57:36.212Z,2.51
2024-02-06T00:57:46.230Z,2.52
2024-02-06T00:57:56.260Z,2.51
2024-02-06T00:58:06.283Z,2.52
2024-02-06T00:58:16.323Z,2.49
2024-02-06T00:58:26.291Z,2.47
2024-02-06T00:58:36.263Z,2.48
2024-02-06T00:58:46.262Z,2.49
2024-02-06T00:58:56.229Z,2.48
2024-02-06T00:59:06.224Z,2.49
2024-02-06T00:59:16.222Z,2.48
2024-02-06T00:59:26.224Z,2.48
2024-02-06T00:59:36.221Z,2.48
2024-02-06T00:59:46.229Z,2.48
2024-02-06T00:59:56.225Z,2.48
2024-02-06T01:00:06.236Z,2.48
2024-02-06T01:00:16.236Z,2.47
2024-02-06T01:00:26.259Z,2.49
2024-02-06T01:00:36.301Z,2.48
2024-02-06T01:00:46.316Z,2.47
2024-02-06T01:00:56.298Z,2.48
2024-02-06T01:01:06.304Z,2.48
2024-02-06T01:01:16.296Z,2.47
2024-02-06T01:01:26.297Z,2.48
2024-02-06T01:01:46.280Z,2.48
2024-02-06T01:01:56.357Z,2.47
2024-02-06T01:02:06.417Z,2.48
2024-02-06T01:02:16.284Z,2.47
2024-02-06T01:02:26.248Z,2.45
2024-02-06T01:02:36.242Z,2.45
2024-02-06T01:02:46.274Z,2.48
2024-02-06T01:02:56.256Z,2.47
2024-02-06T01:03:06.231Z,2.45
2024-02-06T01:03:16.294Z,2.44
2024-02-06T01:03:26.277Z,2.43
2024-02-06T01:03:46.339Z,2.43
2024-02-06T01:03:56.332Z,2.43
2024-02-06T01:04:07.073Z,2.44
2024-02-06T01:04:16.310Z,2.45
2024-02-06T01:04:26.376Z,2.43
2024-02-06T01:04:36.389Z,2.43
2024-02-06T01:04:46.480Z,2.43
2024-02-06T01:04:56.295Z,2.43
2024-02-06T01:05:16.410Z,2.43
2024-02-06T01:05:26.304Z,2.44
2024-02-06T01:05:36.271Z,2.42
2024-02-06T01:05:46.240Z,2.43
2024-02-06T01:05:56.256Z,2.43
2024-02-06T01:06:06.272Z,2.45
2024-02-06T01:06:16.257Z,2.41
2024-02-06T01:06:26.266Z,2.45
2024-02-06T01:06:36.317Z,2.42
2024-02-06T01:06:46.302Z,2.44
2024-02-06T01:06:56.352Z,2.45
2024-02-06T01:07:16.291Z,2.44
2024-02-06T01:07:26.297Z,2.43
2024-02-06T01:07:36.416Z,2.42
2024-02-06T01:07:46.337Z,2.40
2024-02-06T01:07:56.415Z,2.40
2024-02-06T01:08:06.320Z,2.41
2024-02-06T01:08:16.316Z,2.42
2024-02-06T01:08:26.341Z,2.42
2024-02-06T01:08:36.285Z,2.42
2024-02-06T01:08:46.270Z,2.43
2024-02-06T01:08:56.259Z,2.41
2024-02-06T01:09:06.336Z,2.43
2024-02-06T01:09:16.266Z,2.44
2024-02-06T01:09:26.265Z,2.42
2024-02-06T01:09:36.259Z,2.42
2024-02-06T01:09:46.258Z,2.42
2024-02-06T01:09:56.301Z,2.42
2024-02-06T01:10:06.311Z,2.43
2024-02-06T01:10:16.281Z,2.43
2024-02-06T01:10:26.369Z,2.44
2024-02-06T01:10:36.352Z,2.45
2024-02-06T01:10:46.311Z,2.45
2024-02-06T01:10:56.280Z,2.44
2024-02-06T01:11:06.280Z,2.45
2024-02-06T01:11:16.908Z,2.47
2024-02-06T01:11:36.269Z,2.48
2024-02-06T01:11:46.268Z,2.49
2024-02-06T01:11:56.270Z,2.50
2024-02-06T01:12:06.289Z,2.48
2024-02-06T01:12:16.269Z,2.47
2024-02-06T01:12:26.304Z,2.47
2024-02-06T01:12:36.273Z,2.47
2024-02-06T01:12:46.267Z,2.47
2024-02-06T01:12:56.307Z,2.47
2024-02-06T01:13:16.317Z,2.49
2024-02-06T01:13:26.338Z,2.48
2024-02-06T01:13:36.403Z,2.49
2024-02-06T01:13:46.282Z,2.47
2024-02-06T01:13:56.280Z,2.48
2024-02-06T01:14:06.298Z,2.47
2024-02-06T01:14:16.284Z,2.48
2024-02-06T01:14:26.296Z,2.45
2024-02-06T01:14:36.285Z,2.45
2024-02-06T01:14:46.298Z,2.43
2024-02-06T01:14:56.333Z,2.44
2024-02-06T01:15:06.284Z,2.45
2024-02-06T01:15:16.297Z,2.44
2024-02-06T01:15:26.302Z,2.45
2024-02-06T01:15:36.293Z,2.46
2024-02-06T01:15:46.287Z,2.46
2024-02-06T01:15:56.294Z,2.46
2024-02-06T01:16:06.358Z,2.46
2024-02-06T01:16:16.342Z,2.46
2024-02-06T01:16:36.363Z,2.45
2024-02-06T01:16:46.287Z,2.44
2024-02-06T01:16:56.293Z,2.46
2024-02-06T01:17:06.296Z,2.46
2024-02-06T01:17:16.286Z,2.46
2024-02-06T01:17:26.295Z,2.46
2024-02-06T01:17:36.315Z,2.48
2024-02-06T01:17:46.509Z,2.47
2024-02-06T01:17:56.367Z,2.49
2024-02-06T01:18:06.328Z,2.49
2024-02-06T01:18:16.323Z,2.49
2024-02-06T01:18:26.949Z,2.50
2024-02-06T01:18:36.374Z,2.50
2024-02-06T01:18:46.320Z,2.50
2024-02-06T01:19:06.435Z,2.49
2024-02-06T01:19:16.329Z,2.48
2024-02-06T01:19:26.415Z,2.48
2024-02-06T01:19:36.568Z,2.47
2024-02-06T01:19:46.427Z,2.48
2024-02-06T01:19:56.383Z,2.48
2024-02-06T01:20:06.344Z,2.48
2024-02-06T01:20:16.376Z,2.45
2024-02-06T01:20:36.304Z,2.45
2024-02-06T01:20:46.305Z,2.46
2024-02-06T01:20:56.310Z,2.44
2024-02-06T01:21:06.310Z,2.45
2024-02-06T01:21:16.898Z,2.46
2024-02-06T01:21:26.323Z,2.46
2024-02-06T01:21:36.311Z,2.48
2024-02-06T01:21:46.317Z,2.47
2024-02-06T01:21:56.362Z,2.47
2024-02-06T01:22:06.325Z,2.48
2024-02-06T01:22:26.371Z,2.50
2024-02-06T01:22:36.369Z,2.47
2024-02-06T01:22:46.310Z,2.46
2024-02-06T01:22:56.326Z,2.47
2024-02-06T01:23:06.341Z,2.48
2024-02-06T01:23:16.322Z,2.47
2024-02-06T01:23:26.317Z,2.48
2024-02-06T01:23:36.324Z,2.48
2024-02-06T01:23:46.335Z,2.49
2024-02-06T01:23:56.319Z,2.49
2024-02-06T01:24:06.324Z,2.45
2024-02-06T01:24:16.355Z,2.46
2024-02-06T01:24:26.326Z,2.44
2024-02-06T01:24:36.328Z,2.46
2024-02-06T01:24:46.341Z,2.45
2024-02-06T01:24:56.360Z,2.47
2024-02-06T01:25:06.364Z,2.47
2024-02-06T01:25:16.337Z,2.46
2024-02-06T01:25:26.385Z,2.47
2024-02-06T01:25:36.527Z,2.47
2024-02-06T01:25:46.353Z,2.47
2024-02-06T01:25:56.378Z,2.46
2024-02-06T01:26:06.333Z,2.47
2024-02-06T01:26:16.340Z,2.47
2024-02-06T01:26:36.327Z,2.46
2024-02-06T01:26:46.340Z,2.47
2024-02-06T01:26:56.342Z,2.46
2024-02-06T01:27:06.340Z,2.45
2024-02-06T01:27:16.362Z,2.45
2024-02-06T01:27:26.332Z,2.46
2024-02-06T01:27:36.344Z,2.43
2024-02-06T01:27:46.335Z,2.43
2024-02-06T01:27:56.352Z,2.43
2024-02-06T01:28:06.365Z,2.44
2024-02-06T01:28:16.392Z,2.42
2024-02-06T01:28:26.432Z,2.41
2024-02-06T01:28:36.462Z,2.41
2024-02-06T01:28:46.350Z,2.41
2024-02-06T01:28:56.356Z,2.43
2024-02-06T01:29:06.904Z,2.42
2024-02-06T01:29:16.401Z,2.43
2024-02-06T01:29:26.346Z,2.42
2024-02-06T01:29:36.366Z,2.42
2024-02-06T01:29:46.347Z,2.44
2024-02-06T01:30:06.347Z,2.42
2024-02-06T01:30:16.347Z,2.42
2024-02-06T01:30:26.356Z,2.41
2024-02-06T01:30:36.351Z,2.44
2024-02-06T01:30:46.354Z,2.43
2024-02-06T01:30:56.381Z,2.43
2024-02-06T01:31:06.388Z,2.43
2024-02-06T01:31:16.437Z,2.43
2024-02-06T01:31:26.392Z,2.42
2024-02-06T01:31:36.493Z,2.44
2024-02-06T01:31:46.379Z,2.43
2024-02-06T01:31:56.354Z,2.44
2024-02-06T01:32:06.368Z,2.43
2024-02-06T01:32:26.398Z,2.44
2024-02-06T01:32:36.396Z,2.44
2024-02-06T01:32:46.420Z,2.43
2024-02-06T01:32:56.440Z,2.42
2024-02-06T01:33:06.426Z,2.43
2024-02-06T01:33:16.417Z,2.42
2024-02-06T01:33:26.400Z,2.42
2024-02-06T01:33:36.459Z,2.43
2024-02-06T01:33:46.445Z,2.42
2024-02-06T01:33:56.472Z,2.43
2024-02-06T01:34:06.450Z,2.44
2024-02-06T01:34:16.853Z,2.44
2024-02-06T01:34:26.426Z,2.44
2024-02-06T01:34:36.527Z,2.45
2024-02-06T01:34:56.470Z,2.44
2024-02-06T01:35:06.513Z,2.43
2024-02-06T01:35:16.396Z,2.44
2024-02-06T01:35:26.371Z,2.41
2024-02-06T01:35:36.375Z,2.42
2024-02-06T01:35:46.400Z,2.41
2024-02-06T01:35:56.389Z,2.44
2024-02-06T01:36:06.380Z,2.44
2024-02-06T01:36:16.402Z,2.43
2024-02-06T01:36:26.375Z,2.44
2024-02-06T01:36:36.403Z,2.45
2024-02-06T01:36:46.396Z,2.45
2024-02-06T01:36:56.394Z,2.46
2024-02-06T01:37:06.432Z,2.47
2024-02-06T01:37:26.454Z,2.48
2024-02-06T01:37:36.479Z,2.48
2024-02-06T01:37:46.387Z,2.47
2024-02-06T01:37:56.379Z,2.47
2024-02-06T01:38:06.382Z,2.48
2024-02-06T01:38:16.385Z,2.47
2024-02-06T01:38:26.395Z,2.47
2024-02-06T01:38:36.385Z,2.47
2024-02-06T01:38:46.401Z,2.47
2024-02-06T01:38:56.392Z,2.46
2024-02-06T01:39:06.384Z,2.46
2024-02-06T01:39:16.398Z,2.46
2024-02-06T01:39:26.394Z,2.46
2024-02-06T01:39:36.388Z,2.43
2024-02-06T01:39:46.400Z,2.44
2024-02-06T01:39:56.446Z,2.42
2024-02-06T01:40:06.521Z,2.45
2024-02-06T01:40:26.410Z,2.44
2024-02-06T01:40:36.514Z,2.43
2024-02-06T01:40:46.432Z,2.45
2024-02-06T01:40:56.402Z,2.44
2024-02-06T01:41:06.424Z,2.45
2024-02-06T01:41:16.436Z,2.45
2024-02-06T01:41:26.397Z,2.45
2024-02-06T01:41:36.419Z,2.46
2024-02-06T01:41:46.393Z,2.45
2024-02-06T01:41:56.423Z,2.45
2024-02-06T01:42:06.408Z,2.46
2024-02-06T01:42:27.414Z,2.47
2024-02-06T01:42:36.414Z,2.46
2024-02-06T01:42:46.405Z,2.46
2024-02-06T01:42:56.449Z,2.45
2024-02-06T01:43:06.444Z,2.45
2024-02-06T01:43:16.451Z,2.44
2024-02-06T01:43:36.454Z,2.47
2024-02-06T01:43:46.438Z,2.46
2024-02-06T01:43:56.414Z,2.47
2024-02-06T01:44:06.412Z,2.46
2024-02-06T01:44:16.410Z,2.49
2024-02-06T01:44:26.420Z,2.47
2024-02-06T01:44:36.411Z,2.49
2024-02-06T01:44:46.413Z,2.48
2024-02-06T01:44:56.427Z,2.49
2024-02-06T01:45:06.422Z,2.49
2024-02-06T01:45:16.411Z,2.47
2024-02-06T01:45:26.412Z,2.49
2024-02-06T01:45:36.440Z,2.49
2024-02-06T01:45:46.424Z,2.47
2024-02-06T01:45:56.450Z,2.48
2024-02-06T01:46:06.557Z,2.48
2024-02-06T01:46:16.600Z,2.48
2024-02-06T01:46:26.438Z,2.47
2024-02-06T01:46:36.494Z,2.47
2024-02-06T01:46:46.444Z,2.48
2024-02-06T01:46:56.423Z,2.48
2024-02-06T01:47:06.436Z,2.49
2024-02-06T01:47:16.423Z,2.48
2024-02-06T01:47:26.424Z,2.49
2024-02-06T01:47:36.449Z,2.49
2024-02-06T01:47:46.468Z,2.50
2024-02-06T01:47:57.440Z,2.52
2024-02-06T01:48:16.510Z,2.51
2024-02-06T01:48:26.525Z,2.50
2024-02-06T01:48:36.484Z,2.48
2024-02-06T01:48:46.506Z,2.47
2024-02-06T01:48:56.537Z,2.48
2024-02-06T01:49:06.523Z,2.49
2024-02-06T01:49:16.510Z,2.51
2024-02-06T01:49:26.501Z,2.50
2024-02-06T01:49:36.615Z,2.50
2024-02-06T01:49:46.522Z,2.49
2024-02-06T01:49:56.496Z,2.49
2024-02-06T01:50:06.611Z,2.50
2024-02-06T01:50:16.672Z,2.48
2024-02-06T01:50:26.471Z,2.48
2024-02-06T01:50:36.524Z,2.48
2024-02-06T01:50:46.441Z,2.49
2024-02-06T01:50:56.446Z,2.50
2024-02-06T01:51:06.488Z,2.49
2024-02-06T01:51:16.443Z,2.48
2024-02-06T01:51:26.996Z,2.47
2024-02-06T01:51:36.451Z,2.49
2024-02-06T01:51:46.452Z,2.47
2024-02-06T01:51:56.480Z,2.46
2024-02-06T01:52:06.457Z,2.48
2024-02-06T01:52:16.450Z,2.46
2024-02-06T01:52:26.482Z,2.48
2024-02-06T01:52:36.498Z,2.48
2024-02-06T01:52:46.444Z,2.47
2024-02-06T01:52:56.451Z,2.47
2024-02-06T01:53:16.441Z,2.49
2024-02-06T01:53:26.455Z,2.50
2024-02-06T01:53:36.449Z,2.50
2024-02-06T01:53:46.442Z,2.49
2024-02-06T01:53:56.496Z,2.49
2024-02-06T01:54:06.457Z,2.48
2024-02-06T01:54:16.474Z,2.49
2024-02-06T01:54:26.464Z,2.47
2024-02-06T01:54:36.451Z,2.48
2024-02-06T01:54:46.446Z,2.49
2024-02-06T01:54:56.499Z,2.49
2024-02-06T01:55:16.486Z,2.47
2024-02-06T01:55:26.491Z,2.50
2024-02-06T01:55:36.524Z,2.50
2024-02-06T01:55:46.556Z,2.51
2024-02-06T01:55:56.454Z,2.51
2024-02-06T01:56:06.459Z,2.51
2024-02-06T01:56:16.462Z,2.51
2024-02-06T01:56:26.461Z,2.51
2024-02-06T01:56:46.466Z,2.51
2024-02-06T01:56:56.476Z,2.51
2024-02-06T01:57:06.461Z,2.49
2024-02-06T01:57:16.469Z,2.48
2024-02-06T01:57:26.465Z,2.49
2024-02-06T01:57:36.468Z,2.47
2024-02-06T01:57:46.459Z,2.47
2024-02-06T01:58:06.516Z,2.47
2024-02-06T01:58:16.506Z,2.45
2024-02-06T01:58:26.513Z,2.46
2024-02-06T01:58:36.576Z,2.46
2024-02-06T01:58:46.486Z,2.46
2024-02-06T01:58:56.475Z,2.43
2024-02-06T01:59:06.471Z,2.45
2024-02-06T01:59:16.475Z,2.44
2024-02-06T01:59:26.480Z,2.47
2024-02-06T01:59:46.480Z,2.48
2024-02-06T01:59:56.474Z,2.47
2024-02-06T02:00:06.469Z,2.46
2024-02-06T02:00:16.473Z,2.47
2024-02-06T02:00:26.487Z,2.47
2024-02-06T02:00:36.474Z,2.47
2024-02-06T02:00:46.513Z,2.44
2024-02-06T02:00:56.689Z,2.46
2024-02-06T02:01:06.651Z,2.44
2024-02-06T02:01:16.526Z,2.45
2024-02-06T02:01:26.592Z,2.44
2024-02-06T02:01:36.595Z,2.44
2024-02-06T02:01:46.592Z,2.45
2024-02-06T02:01:56.606Z,2.44
2024-02-06T02:02:06.598Z,2.45
2024-02-06T02:02:16.566Z,2.44
2024-02-06T02:02:36.518Z,2.46
2024-02-06T02:02:46.489Z,2.45
2024-02-06T02:02:56.485Z,2.45
2024-02-06T02:03:06.485Z,2.45
2024-02-06T02:03:16.492Z,2.45
2024-02-06T02:03:26.592Z,2.44
2024-02-06T02:03:36.509Z,2.44
2024-02-06T02:03:46.521Z,2.45
2024-02-06T02:03:56.643Z,2.44
2024-02-06T02:04:06.693Z,2.44
2024-02-06T02:04:16.593Z,2.45
2024-02-06T02:04:26.732Z,2.45
2024-02-06T02:04:36.633Z,2.46
2024-02-06T02:04:56.606Z,2.45
2024-02-06T02:05:06.580Z,2.47
2024-02-06T02:05:16.698Z,2.48
2024-02-06T02:05:26.613Z,2.46
2024-02-06T02:05:36.831Z,2.43
2024-02-06T02:05:46.635Z,2.43
2024-02-06T02:05:56.687Z,2.44
2024-02-06T02:06:06.616Z,2.45
2024-02-06T02:06:16.583Z,2.43
2024-02-06T02:06:26.997Z,2.46
2024-02-06T02:06:36.918Z,2.46
2024-02-06T02:06:46.548Z,2.45
2024-02-06T02:06:56.645Z,2.45
2024-02-06T02:07:06.580Z,2.48
2024-02-06T02:07:16.682Z,2.49
2024-02-06T02:07:36.568Z,2.47
2024-02-06T02:07:46.525Z,2.47
2024-02-06T02:07:56.661Z,2.48
2024-02-06T02:08:06.648Z,2.48
2024-02-06T02:08:16.633Z,2.47
2024-02-06T02:08:26.533Z,2.47
2024-02-06T02:08:36.694Z,2.48
2024-02-06T02:08:46.553Z,2.47
2024-02-06T02:08:56.609Z,2.48
2024-02-06T02:09:16.557Z,2.48
2024-02-06T02:09:26.572Z,2.48
2024-02-06T02:09:36.521Z,2.48
2024-02-06T02:09:46.525Z,2.48
2024-02-06T02:09:56.598Z,2.48
2024-02-06T02:10:06.570Z,2.48
2024-02-06T02:10:16.586Z,2.49
2024-02-06T02:10:26.578Z,2.48
2024-02-06T02:10:36.703Z,2.49
2024-02-06T02:10:46.625Z,2.49
2024-02-06T02:10:56.538Z,2.49
2024-02-06T02:11:06.546Z,2.50
2024-02-06T02:11:16.538Z,2.52
2024-02-06T02:11:36.528Z,2.50
2024-02-06T02:11:46.521Z,2.50
2024-02-06T02:11:56.530Z,2.49
2024-02-06T02:12:06.548Z,2.49
2024-02-06T02:12:16.523Z,2.49
2024-02-06T02:12:26.528Z,2.49
2024-02-06T02:12:36.601Z,2.49
2024-02-06T02:12:46.536Z,2.51
2024-02-06T02:12:56.594Z,2.52
2024-02-06T02:13:06.620Z,2.50
2024-02-06T02:13:16.606Z,2.51
2024-02-06T02:13:26.542Z,2.53
2024-02-06T02:13:36.654Z,2.52
2024-02-06T02:13:46.539Z,2.52
2024-02-06T02:13:56.551Z,2.51
2024-02-06T02:14:06.559Z,2.51
2024-02-06T02:14:16.537Z,2.51
2024-02-06T02:14:26.544Z,2.51
2024-02-06T02:14:46.548Z,2.54
2024-02-06T02:14:56.549Z,2.53
2024-02-06T02:15:06.543Z,2.51
2024-02-06T02:15:16.549Z,2.49
2024-02-06T02:15:26.561Z,2.51
2024-02-06T02:15:36.574Z,2.49
2024-02-06T02:15:46.566Z,2.49
2024-02-06T02:15:56.574Z,2.50
2024-02-06T02:16:06.602Z,2.52
2024-02-06T02:16:16.574Z,2.51
2024-02-06T02:16:36.619Z,2.49
2024-02-06T02:16:46.655Z,2.49
2024-02-06T02:16:56.550Z,2.51
2024-02-06T02:17:06.578Z,2.50
2024-02-06T02:17:16.591Z,2.51
2024-02-06T02:17:26.557Z,2.52
2024-02-06T02:17:36.601Z,2.52
2024-02-06T02:17:46.581Z,2.53
2024-02-06T02:17:56.610Z,2.53
2024-02-06T02:18:06.639Z,2.56
2024-02-06T02:18:16.683Z,2.55
2024-02-06T02:18:26.635Z,2.54
2024-02-06T02:18:46.583Z,2.59
2024-02-06T02:18:56.631Z,2.60
2024-02-06T02:19:06.673Z,2.59
2024-02-06T02:19:16.647Z,2.62
2024-02-06T02:19:26.783Z,2.63
2024-02-06T02:19:36.682Z,2.62
2024-02-06T02:19:46.616Z,2.61
2024-02-06T02:19:56.619Z,2.61
2024-02-06T02:20:06.595Z,2.61
2024-02-06T02:20:16.586Z,2.60
2024-02-06T02:20:26.574Z,2.61
2024-02-06T02:20:36.576Z,2.62
2024-02-06T02:20:46.589Z,2.64
2024-02-06T02:21:06.600Z,2.63
2024-02-06T02:21:16.584Z,2.62
2024-02-06T02:21:26.587Z,2.63
2024-02-06T02:21:36.589Z,2.63
2024-02-06T02:21:46.597Z,2.62
2024-02-06T02:21:56.604Z,2.64
2024-02-06T02:22:06.618Z,2.62
2024-02-06T02:22:16.611Z,2.63
2024-02-06T02:22:26.647Z,2.64
2024-02-06T02:22:46.603Z,2.62
2024-02-06T02:22:56.575Z,2.62
2024-02-06T02:23:15.605Z,2.64
2024-02-06T02:23:25.277Z,2.62